Sacramento, California
Traffic Map
Current Weather Conditions
Sacramento, California
Clear
Clear
65°
Feels Like: 65°
Wind Chill: 65° Ceiling: Unl
Heat Index: 65° Visibility: 10mi
Dew Point: 34° Wind: 3mph
Humidity: 32% Direction: 170° (S)
Pressure: 30.1in Gusts: 0mph
Raw Report DataKSAC 161753Z 17003KT 10SM CLR 18/01 A3010 RMK AO2 SLP192 T01830011 10183 20050 50002
Traffic Incident Summary
Active as of:
Severity:
Category:
InformationThere was an issue retrieving the traffic information for this location. Please try a different location or try again shortly.
Advertisements